Observation data for White River Lake on 06/25/2019      Previous  Date  Next       Current Mesonet Observations  Soil Data  Daily Summary Page  Observations in Plain Language
KWVS 250500Z 14011KT 24/20 A2996 RMK A01 T02360201  RH  086%=      5-min Rain = 0
KWVS 250505Z 14010G15KT 23/20 A2995 RMK A01 T02340200  RH  086%=      5-min Rain = 0
KWVS 250510Z 15010KT 23/20 A2995 RMK A01 T02340199  RH  086%=      5-min Rain = 0
KWVS 250515Z 15010KT 23/20 A2995 RMK A01 T02330199  RH  086%=      5-min Rain = 0
KWVS 250520Z 15010KT 23/20 A2995 RMK A01 T02320198  RH  086%=      5-min Rain = 0
KWVS 250525Z 16007KT 23/20 A2994 RMK A01 T02300198  RH  087%=      5-min Rain = 0
KWVS 250530Z 16007KT 23/20 A2994 RMK A01 T02280197  RH  087%=      5-min Rain = 0
KWVS 250535Z 15006KT 23/20 A2995 RMK A01 T02270197  RH  088%=      5-min Rain = 0
KWVS 250540Z 15006KT 23/20 A2995 RMK A01 T02260197  RH  089%=      5-min Rain = 0
KWVS 250545Z 16007KT 23/20 A2994 RMK A01 T02260197  RH  089%=      5-min Rain = 0
KWVS 250550Z 17006KT 23/20 A2994 RMK A01 T02250197  RH  089%=      5-min Rain = 0
KWVS 250555Z 17006KT 22/20 A2994 RMK A01 T02240197  RH  089%=      5-min Rain = 0
KWVS 250600Z 18006KT 22/20 A2994 RMK A01 T02230197  RH  090%=      5-min Rain = 0
KWVS 250605Z 17006KT 22/20 A2994 RMK A01 T02220196  RH  090%=      5-min Rain = 0
KWVS 250610Z 18006KT 22/20 A2994 RMK A01 T02210195  RH  090%=      5-min Rain = 0
KWVS 250615Z 18005KT 22/19 A2994 RMK A01 T02200194  RH  090%=      5-min Rain = 0
KWVS 250620Z 18005KT 22/19 A2994 RMK A01 T02190194  RH  091%=      5-min Rain = 0
KWVS 250625Z 19005KT 22/19 A2994 RMK A01 T02170193  RH  091%=      5-min Rain = 0
KWVS 250630Z 20005KT 22/19 A2994 RMK A01 T02150192  RH  092%=      5-min Rain = 0
KWVS 250635Z 22006KT 22/19 A2993 RMK A01 T02150193  RH  092%=      5-min Rain = 0
KWVS 250640Z 22006KT 22/19 A2993 RMK A01 T02150192  RH  092%=      5-min Rain = 0
KWVS 250645Z 22007KT 21/19 A2993 RMK A01 T02140187  RH  089%=      5-min Rain = 0
KWVS 250650Z 22006KT 21/18 A2993 RMK A01 T02130178  RH  085%=      5-min Rain = 0
KWVS 250655Z 21004KT 21/18 A2994 RMK A01 T02110175  RH  084%=      5-min Rain = 0
KWVS 250700Z 22003KT 21/17 A2994 RMK A01 T02110173  RH  083%=      5-min Rain = 0
KWVS 250705Z 25004KT 21/17 A2993 RMK A01 T02110172  RH  083%=      5-min Rain = 0
KWVS 250710Z 26004KT 21/17 A2993 RMK A01 T02100173  RH  083%=      5-min Rain = 0
KWVS 250715Z 24005KT 21/17 A2993 RMK A01 T02090168  RH  081%=      5-min Rain = 0
KWVS 250720Z 22005KT 21/16 A2993 RMK A01 T02070164  RH  080%=      5-min Rain = 0
KWVS 250725Z 22006KT 21/16 A2993 RMK A01 T02060161  RH  079%=      5-min Rain = 0
KWVS 250730Z 21007KT 21/16 A2993 RMK A01 T02050159  RH  078%=      5-min Rain = 0
KWVS 250735Z 20007KT 20/16 A2993 RMK A01 T02040157  RH  078%=      5-min Rain = 0
KWVS 250740Z 20008KT 20/16 A2993 RMK A01 T02020157  RH  079%=      5-min Rain = 0
KWVS 250745Z 21008KT 20/15 A2993 RMK A01 T01980154  RH  080%=      5-min Rain = 0
KWVS 250750Z 21008KT 20/15 A2993 RMK A01 T01960153  RH  080%=      5-min Rain = 0
KWVS 250755Z 21007KT 19/15 A2993 RMK A01 T01940152  RH  080%=      5-min Rain = 0
KWVS 250800Z 20006KT 19/15 A2993 RMK A01 T01930151  RH  080%=      5-min Rain = 0
KWVS 250805Z 20007KT 19/15 A2993 RMK A01 T01940149  RH  079%=      5-min Rain = 0
KWVS 250810Z 20008KT 20/15 A2993 RMK A01 T01950148  RH  078%=      5-min Rain = 0
KWVS 250815Z 20008KT 19/15 A2993 RMK A01 T01940148  RH  078%=      5-min Rain = 0
KWVS 250820Z 19007KT 19/15 A2994 RMK A01 T01930147  RH  078%=      5-min Rain = 0
KWVS 250825Z 18006KT 19/15 A2994 RMK A01 T01920146  RH  078%=      5-min Rain = 0
KWVS 250830Z 17005KT 19/15 A2994 RMK A01 T01910146  RH  079%=      5-min Rain = 0
KWVS 250835Z 18006KT 19/15 A2994 RMK A01 T01890146  RH  079%=      5-min Rain = 0
KWVS 250840Z 19007KT 19/15 A2994 RMK A01 T01920145  RH  078%=      5-min Rain = 0
KWVS 250845Z 19007KT 19/15 A2994 RMK A01 T01910145  RH  078%=      5-min Rain = 0
KWVS 250850Z 19007KT 19/15 A2994 RMK A01 T01910145  RH  078%=      5-min Rain = 0
KWVS 250855Z 18006KT 19/14 A2994 RMK A01 T01890144  RH  078%=      5-min Rain = 0
KWVS 250900Z 18007KT 19/14 A2994 RMK A01 T01870144  RH  079%=      5-min Rain = 0
KWVS 250905Z 18008KT 19/14 A2994 RMK A01 T01850144  RH  080%=      5-min Rain = 0
KWVS 250910Z 19008KT 19/14 A2994 RMK A01 T01850144  RH  080%=      5-min Rain = 0
KWVS 250915Z 18008KT 18/14 A2994 RMK A01 T01840144  RH  081%=      5-min Rain = 0
KWVS 250920Z 19008KT 18/14 A2994 RMK A01 T01830143  RH  081%=      5-min Rain = 0
KWVS 250925Z 18008KT 18/14 A2994 RMK A01 T01820143  RH  081%=      5-min Rain = 0
KWVS 250930Z 18007KT 18/14 A2995 RMK A01 T01830143  RH  081%=      5-min Rain = 0
KWVS 250935Z 17008KT 18/14 A2995 RMK A01 T01830143  RH  081%=      5-min Rain = 0
KWVS 250940Z 17008KT 18/14 A2995 RMK A01 T01840143  RH  080%=      5-min Rain = 0
KWVS 250945Z 17008KT 18/14 A2995 RMK A01 T01840143  RH  080%=      5-min Rain = 0
KWVS 250950Z 17007KT 18/14 A2996 RMK A01 T01820143  RH  081%=      5-min Rain = 0
KWVS 250955Z 17006KT 18/14 A2996 RMK A01 T01800142  RH  082%=      5-min Rain = 0
KWVS 251000Z 17006KT 18/14 A2996 RMK A01 T01790142  RH  082%=      5-min Rain = 0
KWVS 251005Z 17005KT 18/14 A2996 RMK A01 T01780141  RH  083%=      5-min Rain = 0
KWVS 251010Z 17005KT 18/14 A2996 RMK A01 T01780141  RH  082%=      5-min Rain = 0
KWVS 251015Z 18004KT 18/14 A2996 RMK A01 T01770141  RH  083%=      5-min Rain = 0
KWVS 251020Z 17004KT 18/14 A2997 RMK A01 T01780141  RH  082%=      5-min Rain = 0
KWVS 251025Z 18004KT 18/14 A2997 RMK A01 T01780140  RH  082%=      5-min Rain = 0
KWVS 251030Z 19005KT 18/14 A2997 RMK A01 T01750139  RH  083%=      5-min Rain = 0
KWVS 251035Z 21004KT 17/14 A2996 RMK A01 T01720140  RH  085%=      5-min Rain = 0
KWVS 251040Z 21002KT 17/14 A2997 RMK A01 T01730140  RH  085%=      5-min Rain = 0
KWVS 251045Z 21001KT 17/14 A2997 RMK A01 T01700139  RH  086%=      5-min Rain = 0
KWVS 251050Z 20002KT 17/14 A2997 RMK A01 T01710141  RH  086%=      5-min Rain = 0
KWVS 251055Z 21003KT 18/14 A2997 RMK A01 T01760141  RH  084%=      5-min Rain = 0
KWVS 251100Z 22002KT 18/14 A2997 RMK A01 T01760141  RH  083%=      5-min Rain = 0
KWVS 251105Z 23001KT 17/14 A2997 RMK A01 T01710139  RH  085%=      5-min Rain = 0
KWVS 251110Z 25001KT 17/14 A2997 RMK A01 T01690140  RH  086%=      5-min Rain = 0
KWVS 251115Z 28002KT 17/14 A2997 RMK A01 T01680139  RH  087%=      5-min Rain = 0
KWVS 251120Z 31002KT 17/14 A2997 RMK A01 T01670139  RH  087%=      5-min Rain = 0
KWVS 251125Z 32003KT 16/14 A2997 RMK A01 T01640137  RH  088%=      5-min Rain = 0
KWVS 251130Z 33004KT 16/14 A2997 RMK A01 T01610137  RH  089%=      5-min Rain = 0
KWVS 251135Z 32005KT 16/14 A2997 RMK A01 T01580135  RH  090%=      5-min Rain = 0
KWVS 251140Z 29005KT 16/14 A2997 RMK A01 T01590136  RH  090%=      5-min Rain = 0
KWVS 251145Z 28006KT 16/14 A2998 RMK A01 T01630135  RH  087%=      5-min Rain = 0
KWVS 251150Z 27005KT 17/13 A2998 RMK A01 T01660134  RH  085%=      5-min Rain = 0
KWVS 251155Z 26005KT 17/13 A2998 RMK A01 T01700133  RH  082%=      5-min Rain = 0
KWVS 251200Z 26005KT 17/13 A2998 RMK A01 T01740132  RH  079%=      5-min Rain = 0
KWVS 251205Z 26006KT 18/13 A2998 RMK A01 T01780133  RH  078%=      5-min Rain = 0
KWVS 251210Z 26006KT 18/13 A2999 RMK A01 T01800134  RH  078%=      5-min Rain = 0
KWVS 251215Z 25005KT 18/14 A2999 RMK A01 T01820135  RH  077%=      5-min Rain = 0
KWVS 251220Z 24004KT 19/14 A2999 RMK A01 T01850136  RH  076%=      5-min Rain = 0
KWVS 251225Z 24004KT 19/14 A2999 RMK A01 T01870136  RH  075%=      5-min Rain = 0
KWVS 251230Z 24004KT 19/14 A2999 RMK A01 T01900137  RH  074%=      5-min Rain = 0
KWVS 251235Z 24003KT 19/14 A2999 RMK A01 T01920138  RH  074%=      5-min Rain = 0
KWVS 251240Z 23002KT 19/14 A2999 RMK A01 T01940139  RH  073%=      5-min Rain = 0
KWVS 251245Z 22003KT 20/14 A2999 RMK A01 T01970139  RH  072%=      5-min Rain = 0
KWVS 251250Z 24003KT 20/14 A2999 RMK A01 T01990139  RH  071%=      5-min Rain = 0
KWVS 251255Z 25003KT 20/14 A2999 RMK A01 T02020141  RH  071%=      5-min Rain = 0
KWVS 251300Z 25003KT 21/14 A2999 RMK A01 T02060142  RH  070%=      5-min Rain = 0
KWVS 251305Z 25005KT 21/14 A2999 RMK A01 T02090141  RH  068%=      5-min Rain = 0
KWVS 251310Z 25006KT 21/14 A2999 RMK A01 T02130142  RH  067%=      5-min Rain = 0
KWVS 251315Z 24007G13KT 22/14 A30 RMK A01 T02160143  RH  066%=      5-min Rain = 0
KWVS 251320Z 24008KT 22/14 A30 RMK A01 T02180144  RH  065%=      5-min Rain = 0
KWVS 251325Z 23008G13KT 22/15 A30 RMK A01 T02210147  RH  066%=      5-min Rain = 0
KWVS 251330Z 22009KT 22/15 A30 RMK A01 T02220148  RH  066%=      5-min Rain = 0
KWVS 251335Z 22010KT 22/15 A30 RMK A01 T02240150  RH  066%=      5-min Rain = 0
KWVS 251340Z 22013G18KT 23/15 A30 RMK A01 T02260151  RH  066%=      5-min Rain = 0
KWVS 251345Z 22010G15KT 23/15 A3001 RMK A01 T02270154  RH  066%=      5-min Rain = 0
KWVS 251350Z 22010KT 23/16 A3001 RMK A01 T02290155  RH  066%=      5-min Rain = 0
KWVS 251355Z 23011G17KT 23/16 A3001 RMK A01 T02300155  RH  066%=      5-min Rain = 0
KWVS 251400Z 22012KT 23/16 A3001 RMK A01 T02300155  RH  066%=      5-min Rain = 0
KWVS 251405Z 22010G16KT 23/16 A3001 RMK A01 T02320157  RH  066%=      5-min Rain = 0
KWVS 251410Z 22013G18KT 23/16 A3001 RMK A01 T02340158  RH  065%=      5-min Rain = 0
KWVS 251415Z 22013G18KT 24/16 A3002 RMK A01 T02350158  RH  065%=      5-min Rain = 0
KWVS 251420Z 22013G18KT 24/16 A3002 RMK A01 T02370160  RH  065%=      5-min Rain = 0
KWVS 251425Z 22014G20KT 24/16 A3002 RMK A01 T02410161  RH  064%=      5-min Rain = 0
KWVS 251430Z 22017G22KT 24/16 A3002 RMK A01 T02410160  RH  064%=      5-min Rain = 0
KWVS 251435Z 22014G19KT 24/16 A3001 RMK A01 T02430162  RH  064%=      5-min Rain = 0
KWVS 251440Z 22016G24KT 25/16 A3001 RMK A01 T02450162  RH  063%=      5-min Rain = 0
KWVS 251445Z 22015G21KT 25/16 A3001 RMK A01 T02460163  RH  063%=      5-min Rain = 0
KWVS 251450Z 23012G18KT 25/17 A3001 RMK A01 T02490166  RH  063%=      5-min Rain = 0
KWVS 251455Z 23014G19KT 25/17 A3001 RMK A01 T02540166  RH  061%=      5-min Rain = 0
KWVS 251500Z 23015G22KT 25/16 A3001 RMK A01 T02530164  RH  061%=      5-min Rain = 0
KWVS 251505Z 22016G22KT 25/16 A3001 RMK A01 T02540164  RH  060%=      5-min Rain = 0
KWVS 251510Z 22012G17KT 26/17 A3001 RMK A01 T02570166  RH  060%=      5-min Rain = 0
KWVS 251515Z 22013G18KT 26/17 A3001 RMK A01 T02590167  RH  060%=      5-min Rain = 0
KWVS 251520Z 22013KT 26/17 A3001 RMK A01 T02600167  RH  059%=      5-min Rain = 0
KWVS 251525Z 22012G17KT 26/17 A3001 RMK A01 T02600168  RH  060%=      5-min Rain = 0
KWVS 251530Z 20011KT 26/17 A3001 RMK A01 T02630168  RH  059%=      5-min Rain = 0
KWVS 251535Z 22010KT 27/17 A3001 RMK A01 T02680171  RH  058%=      5-min Rain = 0
KWVS 251540Z 22009G14KT 27/17 A3001 RMK A01 T02700173  RH  058%=      5-min Rain = 0
KWVS 251545Z 24010KT 27/17 A3001 RMK A01 T02680171  RH  058%=      5-min Rain = 0
KWVS 251550Z 23011KT 27/17 A3001 RMK A01 T02690170  RH  057%=      5-min Rain = 0
KWVS 251555Z 24009KT 27/17 A3001 RMK A01 T02700171  RH  058%=      5-min Rain = 0
KWVS 251600Z 21010G15KT 27/17 A3001 RMK A01 T02700171  RH  057%=      5-min Rain = 0
KWVS 251605Z 21010G15KT 27/17 A3001 RMK A01 T02720172  RH  057%=      5-min Rain = 0
KWVS 251610Z 22009KT 27/17 A3001 RMK A01 T02740172  RH  057%=      5-min Rain = 0
KWVS 251615Z 20010KT 27/17 A3001 RMK A01 T02740171  RH  056%=      5-min Rain = 0
KWVS 251620Z 20010G15KT 28/17 A3001 RMK A01 T02780169  RH  054%=      5-min Rain = 0
KWVS 251625Z 21011KT 28/17 A3001 RMK A01 T02800169  RH  054%=      5-min Rain = 0
KWVS 251630Z 19011G16KT 28/17 A3001 RMK A01 T02800169  RH  053%=      5-min Rain = 0
KWVS 251635Z 19011G16KT 28/17 A3001 RMK A01 T02810167  RH  053%=      5-min Rain = 0
KWVS 251640Z 21010G16KT 28/17 A3002 RMK A01 T02800168  RH  053%=      5-min Rain = 0
KWVS 251645Z 20010KT 28/17 A3002 RMK A01 T02840168  RH  052%=      5-min Rain = 0
KWVS 251650Z 19008KT 28/17 A3002 RMK A01 T02830169  RH  052%=      5-min Rain = 0
KWVS 251655Z 19006KT 29/17 A3001 RMK A01 T02870172  RH  052%=      5-min Rain = 0
KWVS 251700Z 22008KT 29/17 A3001 RMK A01 T02880172  RH  052%=      5-min Rain = 0
KWVS 251705Z 20008KT 29/17 A3001 RMK A01 T02860169  RH  051%=      5-min Rain = 0
KWVS 251710Z 20009KT 29/17 A3001 RMK A01 T02890170  RH  051%=      5-min Rain = 0
KWVS 251715Z 22005KT 29/17 A3001 RMK A01 T02900171  RH  051%=      5-min Rain = 0
KWVS 251720Z 20007G12KT 29/17 A3001 RMK A01 T02920170  RH  050%=      5-min Rain = 0
KWVS 251725Z 20007G12KT 29/17 A30 RMK A01 T02940170  RH  050%=      5-min Rain = 0
KWVS 251730Z 19007KT 30/17 A30 RMK A01 T02960167  RH  048%=      5-min Rain = 0
KWVS 251735Z 19008G16KT 30/17 A30 RMK A01 T02970168  RH  048%=      5-min Rain = 0
KWVS 251740Z 19008KT 30/17 A30 RMK A01 T02980167  RH  047%=      5-min Rain = 0
KWVS 251745Z 20007KT 30/17 A30 RMK A01 T03000168  RH  047%=      5-min Rain = 0
KWVS 251750Z 17006G11KT 30/17 A30 RMK A01 T03000168  RH  047%=      5-min Rain = 0
KWVS 251755Z 16009KT 30/17 A30 RMK A01 T03040165  RH  045%=      5-min Rain = 0
KWVS 251800Z 18007KT 30/17 A30 RMK A01 T03030167  RH  046%=      5-min Rain = 0
KWVS 251805Z 16006G11KT 31/17 A30 RMK A01 T03070167  RH  045%=      5-min Rain = 0
KWVS 251810Z 19008KT 31/17 A30 RMK A01 T03110168  RH  044%=      5-min Rain = 0
KWVS 251815Z 14007G13KT 31/17 A30 RMK A01 T03090170  RH  045%=      5-min Rain = 0
KWVS 251820Z 14008KT 31/17 A30 RMK A01 T03110170  RH  045%=      5-min Rain = 0
KWVS 251825Z 14009G15KT 31/17 A30 RMK A01 T03130169  RH  044%=      5-min Rain = 0
KWVS 251830Z 16009G15KT 32/17 A30 RMK A01 T03150168  RH  043%=      5-min Rain = 0
KWVS 251835Z 14010KT 32/17 A30 RMK A01 T03150166  RH  043%=      5-min Rain = 0
KWVS 251840Z 16012KT 32/17 A30 RMK A01 T03150166  RH  043%=      5-min Rain = 0
KWVS 251845Z 14008KT 32/17 A30 RMK A01 T03160165  RH  042%=      5-min Rain = 0
KWVS 251850Z 15009G14KT 32/17 A30 RMK A01 T03220169  RH  042%=      5-min Rain = 0
KWVS 251855Z 15012G18KT 32/17 A30 RMK A01 T03220168  RH  042%=      5-min Rain = 0
KWVS 251900Z 14010G16KT 32/17 A30 RMK A01 T03200166  RH  042%=      5-min Rain = 0
KWVS 251905Z 12009G15KT 32/17 A30 RMK A01 T03200165  RH  041%=      5-min Rain = 0
KWVS 251910Z 13011G16KT 32/17 A30 RMK A01 T03220172  RH  043%=      5-min Rain = 0
KWVS 251915Z 14014G19KT 32/17 A30 RMK A01 T03230173  RH  043%=      5-min Rain = 0
KWVS 251920Z 12014KT 32/17 A30 RMK A01 T03190172  RH  044%=      5-min Rain = 0
KWVS 251925Z 13013G18KT 32/17 A2999 RMK A01 T03180173  RH  044%=      5-min Rain = 0
KWVS 251930Z 13014G22KT 32/17 A2999 RMK A01 T03210172  RH  043%=      5-min Rain = 0
KWVS 251935Z 14010G17KT 32/17 A2999 RMK A01 T03200170  RH  043%=      5-min Rain = 0
KWVS 251940Z 13012G17KT 32/17 A2999 RMK A01 T03210169  RH  042%=      5-min Rain = 0
KWVS 251945Z 14013G18KT 32/17 A2999 RMK A01 T03200168  RH  042%=      5-min Rain = 0
KWVS 251950Z 14010G16KT 32/17 A2999 RMK A01 T03240167  RH  041%=      5-min Rain = 0
KWVS 251955Z 16014KT 33/16 A2999 RMK A01 T03250164  RH  040%=      5-min Rain = 0
KWVS 252000Z 17011G17KT 33/16 A2999 RMK A01 T03250163  RH  040%=      5-min Rain = 0
KWVS 252005Z 13014G21KT 32/17 A2999 RMK A01 T03240165  RH  040%=      5-min Rain = 0
KWVS 252010Z 16014G22KT 33/16 A2998 RMK A01 T03260159  RH  039%=      5-min Rain = 0
KWVS 252015Z 16011G18KT 33/16 A2998 RMK A01 T03250160  RH  039%=      5-min Rain = 0
KWVS 252020Z 13013G18KT 33/16 A2998 RMK A01 T03280163  RH  039%=      5-min Rain = 0
KWVS 252025Z 14015G21KT 33/17 A2997 RMK A01 T03280172  RH  041%=      5-min Rain = 0
KWVS 252030Z 14012G17KT 33/17 A2997 RMK A01 T03260172  RH  042%=      5-min Rain = 0
KWVS 252035Z 13012G17KT 33/17 A2997 RMK A01 T03280172  RH  042%=      5-min Rain = 0
KWVS 252040Z 14012G17KT 33/18 A2997 RMK A01 T03250176  RH  043%=      5-min Rain = 0
KWVS 252045Z 15013G18KT 33/17 A2997 RMK A01 T03260171  RH  042%=      5-min Rain = 0
KWVS 252050Z 14012G17KT 33/17 A2997 RMK A01 T03250171  RH  042%=      5-min Rain = 0
KWVS 252055Z 14014KT 33/17 A2997 RMK A01 T03270172  RH  042%=      5-min Rain = 0
KWVS 252100Z 12010G15KT 33/17 A2997 RMK A01 T03290174  RH  042%=      5-min Rain = 0
KWVS 252105Z 16013G18KT 33/17 A2997 RMK A01 T03270168  RH  040%=      5-min Rain = 0
KWVS 252110Z 14015G21KT 33/17 A2997 RMK A01 T03250168  RH  041%=      5-min Rain = 0
KWVS 252115Z 14013G21KT 32/17 A2997 RMK A01 T03240168  RH  041%=      5-min Rain = 0
KWVS 252120Z 13015G20KT 33/17 A2996 RMK A01 T03250170  RH  042%=      5-min Rain = 0
KWVS 252125Z 13013G18KT 33/17 A2996 RMK A01 T03260172  RH  042%=      5-min Rain = 0
KWVS 252130Z 14014G19KT 33/17 A2996 RMK A01 T03250170  RH  041%=      5-min Rain = 0
KWVS 252135Z 13015G21KT 33/17 A2996 RMK A01 T03250169  RH  041%=      5-min Rain = 0
KWVS 252140Z 13012G17KT 33/17 A2996 RMK A01 T03270171  RH  041%=      5-min Rain = 0
KWVS 252145Z 15013KT 33/17 A2996 RMK A01 T03280165  RH  040%=      5-min Rain = 0
KWVS 252150Z 14012G18KT 33/16 A2995 RMK A01 T03250163  RH  040%=      5-min Rain = 0
KWVS 252155Z 15014G21KT 33/16 A2995 RMK A01 T03260159  RH  038%=      5-min Rain = 0
KWVS 252200Z 13013G18KT 33/16 A2995 RMK A01 T03260164  RH  040%=      5-min Rain = 0
KWVS 252205Z 12015G21KT 32/16 A2995 RMK A01 T03240161  RH  039%=      5-min Rain = 0
KWVS 252210Z 15012G17KT 33/16 A2995 RMK A01 T03290160  RH  038%=      5-min Rain = 0
KWVS 252215Z 13013G21KT 33/16 A2995 RMK A01 T03280161  RH  038%=      5-min Rain = 0
KWVS 252220Z 13013G19KT 33/16 A2994 RMK A01 T03260159  RH  038%=      5-min Rain = 0
KWVS 252225Z 13016G21KT 32/16 A2994 RMK A01 T03240158  RH  039%=      5-min Rain = 0
KWVS 252230Z 13015G21KT 32/16 A2994 RMK A01 T03230159  RH  039%=      5-min Rain = 0
KWVS 252235Z 14015G21KT 33/16 A2994 RMK A01 T03250158  RH  038%=      5-min Rain = 0
KWVS 252240Z 14014G19KT 33/16 A2994 RMK A01 T03260157  RH  038%=      5-min Rain = 0
KWVS 252245Z 13015G21KT 32/16 A2994 RMK A01 T03240155  RH  038%=      5-min Rain = 0
KWVS 252250Z 14015G20KT 33/16 A2994 RMK A01 T03270155  RH  037%=      5-min Rain = 0
KWVS 252255Z 13015G22KT 33/15 A2994 RMK A01 T03250153  RH  037%=      5-min Rain = 0
KWVS 252300Z 13016G22KT 33/16 A2994 RMK A01 T03250155  RH  038%=      5-min Rain = 0
KWVS 252305Z 12016G23KT 32/16 A2993 RMK A01 T03230155  RH  038%=      5-min Rain = 0
KWVS 252310Z 13016KT 32/15 A2993 RMK A01 T03210154  RH  038%=      5-min Rain = 0
KWVS 252315Z 14015G22KT 32/15 A2993 RMK A01 T03160152  RH  039%=      5-min Rain = 0
KWVS 252320Z 14015G20KT 32/15 A2993 RMK A01 T03210153  RH  038%=      5-min Rain = 0
KWVS 252325Z 13014KT 32/15 A2993 RMK A01 T03220153  RH  038%=      5-min Rain = 0
KWVS 252330Z 13015G22KT 32/15 A2993 RMK A01 T03210151  RH  038%=      5-min Rain = 0
KWVS 252335Z 13015G21KT 32/15 A2992 RMK A01 T03220152  RH  038%=      5-min Rain = 0
KWVS 252340Z 13018KT 32/15 A2992 RMK A01 T03190148  RH  037%=      5-min Rain = 0
KWVS 252345Z 14017G24KT 32/15 A2992 RMK A01 T03170148  RH  038%=      5-min Rain = 0
KWVS 252350Z 13017G23KT 32/15 A2992 RMK A01 T03160149  RH  038%=      5-min Rain = 0
KWVS 252355Z 13015G21KT 32/15 A2992 RMK A01 T03160148  RH  038%=      5-min Rain = 0
KWVS 260000Z 13016G21KT 32/15 A2993 RMK A01 T03150149  RH  038%=      5-min Rain = 0
KWVS 260005Z 14016G21KT 31/15 A2993 RMK A01 T03140148  RH  038%=      5-min Rain = 0
KWVS 260010Z 14016G21KT 31/15 A2993 RMK A01 T03120145  RH  038%=      5-min Rain = 0
KWVS 260015Z 13018KT 31/15 A2994 RMK A01 T03100145  RH  038%=      5-min Rain = 0
KWVS 260020Z 13017G22KT 31/14 A2994 RMK A01 T03080143  RH  038%=      5-min Rain = 0
KWVS 260025Z 12014G21KT 31/15 A2994 RMK A01 T03080147  RH  039%=      5-min Rain = 0
KWVS 260030Z 12013G20KT 31/15 A2995 RMK A01 T03060145  RH  039%=      5-min Rain = 0
KWVS 260035Z 12013KT 31/15 A2995 RMK A01 T03060148  RH  040%=      5-min Rain = 0
KWVS 260040Z 12012KT 30/15 A2995 RMK A01 T03040149  RH  041%=      5-min Rain = 0
KWVS 260045Z 11014G19KT 30/15 A2995 RMK A01 T03020145  RH  040%=      5-min Rain = 0
KWVS 260050Z 12014KT 30/15 A2995 RMK A01 T03010145  RH  040%=      5-min Rain = 0
KWVS 260055Z 12012G17KT 30/15 A2996 RMK A01 T03000147  RH  041%=      5-min Rain = 0
KWVS 260100Z 12012KT 30/15 A2996 RMK A01 T02970150  RH  043%=      5-min Rain = 0
KWVS 260105Z 12013KT 30/15 A2996 RMK A01 T02960150  RH  043%=      5-min Rain = 0
KWVS 260110Z 12012G17KT 29/15 A2996 RMK A01 T02940152  RH  044%=      5-min Rain = 0
KWVS 260115Z 12012G17KT 29/15 A2996 RMK A01 T02920154  RH  045%=      5-min Rain = 0
KWVS 260120Z 13013KT 29/15 A2996 RMK A01 T02900154  RH  046%=      5-min Rain = 0
KWVS 260125Z 12012G17KT 29/16 A2996 RMK A01 T02880155  RH  046%=      5-min Rain = 0
KWVS 260130Z 12011KT 29/16 A2996 RMK A01 T02860155  RH  047%=      5-min Rain = 0
KWVS 260135Z 12011G16KT 28/16 A2996 RMK A01 T02840156  RH  048%=      5-min Rain = 0
KWVS 260140Z 13011KT 28/16 A2997 RMK A01 T02820155  RH  048%=      5-min Rain = 0
KWVS 260145Z 12011KT 28/15 A2997 RMK A01 T02800154  RH  049%=      5-min Rain = 0
KWVS 260150Z 12011KT 28/15 A2998 RMK A01 T02780154  RH  049%=      5-min Rain = 0
KWVS 260155Z 11010KT 28/15 A2998 RMK A01 T02760154  RH  050%=      5-min Rain = 0
KWVS 260200Z 12009KT 27/16 A2999 RMK A01 T02740155  RH  050%=      5-min Rain = 0
KWVS 260205Z 12010KT 27/16 A2999 RMK A01 T02720157  RH  052%=      5-min Rain = 0
KWVS 260210Z 11010KT 27/16 A2999 RMK A01 T02700157  RH  052%=      5-min Rain = 0
KWVS 260215Z 11010KT 27/16 A2999 RMK A01 T02690158  RH  053%=      5-min Rain = 0
KWVS 260220Z 12010KT 27/16 A2999 RMK A01 T02680158  RH  053%=      5-min Rain = 0
KWVS 260225Z 11009KT 27/16 A30 RMK A01 T02660157  RH  054%=      5-min Rain = 0
KWVS 260230Z 10009KT 27/16 A30 RMK A01 T02650158  RH  054%=      5-min Rain = 0
KWVS 260235Z 10010KT 27/16 A3001 RMK A01 T02660158  RH  054%=      5-min Rain = 0
KWVS 260240Z 09009KT 26/16 A3001 RMK A01 T02640158  RH  055%=      5-min Rain = 0
KWVS 260245Z 09008KT 26/16 A3001 RMK A01 T02590158  RH  056%=      5-min Rain = 0
KWVS 260250Z 09009KT 26/16 A3002 RMK A01 T02590158  RH  056%=      5-min Rain = 0
KWVS 260255Z 08008KT 26/16 A3002 RMK A01 T02570160  RH  058%=      5-min Rain = 0
KWVS 260300Z 08007KT 25/16 A3003 RMK A01 T02530161  RH  059%=      5-min Rain = 0
KWVS 260305Z 08007KT 25/16 A3003 RMK A01 T02510161  RH  060%=      5-min Rain = 0
KWVS 260310Z 07006KT 25/16 A3004 RMK A01 T02500161  RH  061%=      5-min Rain = 0
KWVS 260315Z 05005KT 25/16 A3005 RMK A01 T02480161  RH  062%=      5-min Rain = 0
KWVS 260320Z 04007KT 24/16 A3006 RMK A01 T02440162  RH  063%=      5-min Rain = 0
KWVS 260325Z 03009KT 25/16 A3007 RMK A01 T02450162  RH  063%=      5-min Rain = 0
KWVS 260330Z 04007G12KT 25/16 A3008 RMK A01 T02470161  RH  062%=      5-min Rain = 0
KWVS 260335Z 07005KT 25/16 A3008 RMK A01 T02470160  RH  061%=      5-min Rain = 0
KWVS 260340Z 05007G12KT 25/16 A3009 RMK A01 T02490160  RH  061%=      5-min Rain = 0
KWVS 260345Z 04010KT 25/16 A301 RMK A01 T02540160  RH  059%=      5-min Rain = 0
KWVS 260350Z 03010KT 26/16 A3011 RMK A01 T02570160  RH  058%=      5-min Rain = 0
KWVS 260355Z 04009KT 26/16 A3011 RMK A01 T02580160  RH  057%=      5-min Rain = 0
KWVS 260400Z 05008G13KT 26/16 A3011 RMK A01 T02580159  RH  057%=      5-min Rain = 0
KWVS 260405Z 06007G12KT 26/16 A3012 RMK A01 T02580158  RH  057%=      5-min Rain = 0
KWVS 260410Z 05009KT 26/16 A3012 RMK A01 T02600158  RH  056%=      5-min Rain = 0
KWVS 260415Z 04013G18KT 26/16 A3012 RMK A01 T02610157  RH  055%=      5-min Rain = 0
KWVS 260420Z 05013G18KT 26/16 A3012 RMK A01 T02610157  RH  055%=      5-min Rain = 0
KWVS 260425Z 05012KT 26/16 A3012 RMK A01 T02600156  RH  055%=      5-min Rain = 0
KWVS 260430Z 05014KT 26/15 A3011 RMK A01 T02570151  RH  054%=      5-min Rain = 0
KWVS 260435Z 06010KT 25/15 A3011 RMK A01 T02520147  RH  054%=      5-min Rain = 0
KWVS 260440Z 08007KT 25/15 A3011 RMK A01 T02480147  RH  056%=      5-min Rain = 0
KWVS 260445Z 09007KT 24/15 A3011 RMK A01 T02440148  RH  057%=      5-min Rain = 0
KWVS 260450Z 08008KT 24/14 A3011 RMK A01 T02440144  RH  056%=      5-min Rain = 0
KWVS 260455Z 08008KT 24/14 A301 RMK A01 T02420140  RH  055%=      5-min Rain = 0

Page generated in 0.0092 seconds.